Time;durP1;ratioP1;P1;durP2;ratioP2;P2;SDS_P1;SDS_P2;PMS_P1;PMS_P2;Temp;Humidity;BMP_temperature;BMP_pressure;BME280_temperature;BME280_humidity;BME280_pressure;Samples;Min_cycle;Max_cycle;Signal;HPM_P1;HPM_P2
2024/02/16 00:04:38;;;;;;;50.00;29.70;;;;;;;9.46;100.00;100837.35;213877;1288;139839;-87
2024/02/16 00:09:38;;;;;;;50.80;30.10;;;;;;;9.42;100.00;100837.50;214435;1289;138983;-88
2024/02/16 00:14:39;;;;;;;49.30;29.00;;;;;;;9.40;100.00;100835.95;213718;1285;140420;-88
2024/02/16 00:19:39;;;;;;;47.20;29.30;;;;;;;9.37;100.00;100830.45;214018;1285;139016;-87
2024/02/16 00:24:39;;;;;;;54.10;30.00;;;;;;;9.34;100.00;100832.14;213326;1285;140059;-88
2024/02/16 00:29:40;;;;;;;48.60;29.90;;;;;;;9.33;100.00;100835.70;213569;1286;138973;-87
2024/02/16 00:34:41;;;;;;;59.90;32.40;;;;;;;9.31;100.00;100835.25;213413;1287;140454;-88
2024/02/16 00:39:41;;;;;;;49.40;30.70;;;;;;;9.29;100.00;100831.31;213940;1285;139011;-87
2024/02/16 00:44:42;;;;;;;54.20;31.10;;;;;;;9.29;100.00;100837.59;213579;1288;140781;-88
2024/02/16 00:49:43;;;;;;;48.70;29.40;;;;;;;9.29;100.00;100836.87;213945;1288;138876;-88
2024/02/16 00:54:43;;;;;;;51.60;30.10;;;;;;;9.29;100.00;100837.82;213254;1287;139762;-87
2024/02/16 00:59:44;;;;;;;50.30;28.60;;;;;;;9.28;100.00;100835.52;213569;1286;138679;-87
2024/02/16 01:04:44;;;;;;;50.00;28.60;;;;;;;9.26;100.00;100831.55;213085;1288;140276;-87
2024/02/16 01:09:45;;;;;;;47.50;27.20;;;;;;;9.25;100.00;100826.80;213592;1287;138908;-87
2024/02/16 01:14:45;;;;;;;48.30;27.90;;;;;;;9.24;100.00;100830.80;213277;1286;140263;-87
2024/02/16 01:19:46;;;;;;;42.40;26.70;;;;;;;9.23;100.00;100830.39;213763;1287;139758;-87
2024/02/16 01:24:47;;;;;;;43.20;25.80;;;;;;;9.21;100.00;100832.61;213250;1286;140498;-86
2024/02/16 01:29:47;;;;;;;40.70;25.40;;;;;;;9.18;100.00;100833.73;213701;1290;140184;-87
2024/02/16 01:34:49;;;;;;;41.90;24.50;;;;;;;9.17;100.00;100830.23;213665;1288;140177;-87
2024/02/16 01:39:50;;;;;;;44.50;26.00;;;;;;;9.14;100.00;100817.30;214784;1285;139140;-86
2024/02/16 01:44:50;;;;;;;47.10;26.00;;;;;;;9.06;100.00;100813.60;214257;1285;139664;-86
2024/02/16 01:49:51;;;;;;;41.20;24.00;;;;;;;9.02;100.00;100807.38;214852;1285;139110;-86
2024/02/16 01:54:51;;;;;;;43.30;24.80;;;;;;;8.98;100.00;100804.54;214097;1285;139989;-87
2024/02/16 01:59:52;;;;;;;58.00;30.20;;;;;;;8.94;100.00;100808.44;214612;1285;138529;-87
2024/02/16 02:04:53;;;;;;;47.90;27.40;;;;;;;8.88;100.00;100814.49;214426;1290;139505;-88
2024/02/16 02:09:54;;;;;;;50.70;27.10;;;;;;;8.81;100.00;100813.63;214828;1285;138988;-85
2024/02/16 02:14:54;;;;;;;40.10;24.40;;;;;;;8.78;100.00;100815.11;213590;1290;139744;-85
2024/02/16 02:19:55;;;;;;;42.30;24.90;;;;;;;8.76;100.00;100815.94;213630;1287;138903;-86
2024/02/16 02:24:55;;;;;;;42.60;26.40;;;;;;;8.75;100.00;100810.65;213535;1288;140439;-86
2024/02/16 02:29:56;;;;;;;46.30;28.00;;;;;;;8.74;100.00;100803.33;214032;1285;139883;-84
2024/02/16 02:34:56;;;;;;;44.90;27.20;;;;;;;8.72;100.00;100806.58;213528;1290;139631;-87
2024/02/16 02:39:57;;;;;;;45.80;26.30;;;;;;;8.71;100.00;100806.40;213627;1290;139909;-87
2024/02/16 02:44:57;;;;;;;52.90;29.70;;;;;;;8.71;100.00;100803.01;214406;1285;139891;-87
2024/02/16 02:49:57;;;;;;;47.30;24.80;;;;;;;8.72;100.00;100801.16;214095;1285;140241;-86
2024/02/16 02:54:58;;;;;;;42.20;24.20;;;;;;;8.71;100.00;100799.81;214627;1288;139606;-86
2024/02/16 03:00:10;;;;;;;43.10;24.60;;;;;;;8.71;100.00;100796.61;213833;1289;140577;-83
2024/02/16 03:05:11;;;;;;;43.50;26.20;;;;;;;8.73;100.00;100789.60;214443;1285;139427;-87
2024/02/16 03:10:11;;;;;;;42.70;25.40;;;;;;;8.74;100.00;100793.37;213855;1285;140400;-86
2024/02/16 03:15:12;;;;;;;41.20;25.20;;;;;;;8.74;100.00;100792.04;214070;1285;139387;-88
2024/02/16 03:20:12;;;;;;;45.80;26.40;;;;;;;8.74;100.00;100794.86;213544;1286;139890;-88
2024/02/16 03:25:13;;;;;;;45.10;26.90;;;;;;;8.73;100.00;100797.59;214072;1286;139512;-88
2024/02/16 03:30:14;;;;;;;42.50;27.00;;;;;;;8.71;100.00;100797.70;213896;1286;139809;-87
2024/02/16 03:35:14;;;;;;;43.10;24.60;;;;;;;8.70;100.00;100795.15;214359;1287;139132;-87
2024/02/16 03:40:15;;;;;;;43.40;24.90;;;;;;;8.68;100.00;100792.36;213427;1286;140628;-87
2024/02/16 03:45:15;;;;;;;42.20;25.80;;;;;;;8.66;100.00;100796.63;214729;1284;139489;-87
2024/02/16 03:50:15;;;;;;;43.80;25.70;;;;;;;8.63;100.00;100790.59;213974;1288;140607;-89
2024/02/16 03:55:16;;;;;;;53.00;29.20;;;;;;;8.60;100.00;100788.81;214349;1288;139699;-88
2024/02/16 04:00:16;;;;;;;46.60;25.10;;;;;;;8.56;100.00;100790.66;213895;1285;140173;-87
2024/02/16 04:05:17;;;;;;;45.10;24.90;;;;;;;8.52;100.00;100795.83;214444;1285;139244;-87
2024/02/16 04:10:17;;;;;;;44.10;26.30;;;;;;;8.47;100.00;100796.08;213741;1285;139986;-87
2024/02/16 04:15:17;;;;;;;43.30;25.10;;;;;;;8.42;100.00;100792.04;213966;1287;139334;-87
2024/02/16 04:20:19;;;;;;;44.00;26.60;;;;;;;8.37;100.00;100790.98;213457;1286;141361;-87
2024/02/16 04:25:19;;;;;;;42.20;25.10;;;;;;;8.31;100.00;100784.77;213924;1290;140107;-87
2024/02/16 04:30:20;;;;;;;47.60;26.60;;;;;;;8.26;100.00;100776.64;213753;1285;140365;-87
2024/02/16 04:35:20;;;;;;;41.20;25.50;;;;;;;8.19;100.00;100772.07;214185;1285;139861;-86
2024/02/16 04:40:21;;;;;;;41.30;25.00;;;;;;;8.13;100.00;100770.16;213593;1287;161797;-86
2024/02/16 04:45:21;;;;;;;45.30;25.70;;;;;;;8.09;100.00;100763.71;213900;1290;139621;-87
2024/02/16 04:50:21;;;;;;;43.90;24.10;;;;;;;8.04;100.00;100760.77;215055;1285;140451;-87
2024/02/16 04:55:22;;;;;;;43.50;24.90;;;;;;;8.00;100.00;100760.13;214075;1288;139743;-87
2024/02/16 05:00:23;;;;;;;44.00;23.40;;;;;;;7.95;100.00;100763.27;213785;1286;139786;-87
2024/02/16 05:05:24;;;;;;;43.80;23.60;;;;;;;7.91;100.00;100759.33;213964;1286;138729;-87
2024/02/16 05:10:25;;;;;;;42.00;24.00;;;;;;;7.84;100.00;100757.49;213602;1286;140138;-87
2024/02/16 05:15:25;;;;;;;43.70;25.00;;;;;;;7.76;100.00;100754.36;213966;1286;139141;-87
2024/02/16 05:20:26;;;;;;;45.70;25.80;;;;;;;7.68;100.00;100747.64;213131;1287;140184;-87
2024/02/16 05:25:26;;;;;;;42.10;24.20;;;;;;;7.60;100.00;100743.84;213733;1286;141361;-88
2024/02/16 05:30:27;;;;;;;41.90;24.30;;;;;;;7.54;100.00;100741.21;213282;1290;140169;-86
2024/02/16 05:35:28;;;;;;;46.20;25.70;;;;;;;7.47;100.00;100744.64;214054;1287;139244;-87
2024/02/16 05:40:30;;;;;;;45.60;26.70;;;;;;;7.39;100.00;100749.27;213701;1287;140921;-87
2024/02/16 05:45:30;;;;;;;44.80;25.70;;;;;;;7.33;100.00;100750.09;214357;1285;139005;-87
2024/02/16 05:50:31;;;;;;;42.80;23.40;;;;;;;7.26;100.00;100753.89;215146;1285;141020;-87
2024/02/16 05:55:31;;;;;;;41.50;24.70;;;;;;;7.20;100.00;100755.35;214443;1288;139382;-87
2024/02/16 06:00:34;;;;;;;36.50;22.20;;;;;;;7.14;100.00;100758.29;214468;1289;141450;-87
2024/02/16 06:05:34;;;;;;;44.10;25.00;;;;;;;7.09;100.00;100758.20;214831;1289;138819;-87
2024/02/16 06:10:35;;;;;;;42.00;24.40;;;;;;;7.03;100.00;100755.84;214261;1284;140979;-87
2024/02/16 06:15:37;;;;;;;38.50;23.20;;;;;;;6.97;100.00;100763.79;214179;1285;138995;-87
2024/02/16 06:20:37;;;;;;;42.20;23.70;;;;;;;6.93;100.00;100761.48;213638;1285;139938;-87
2024/02/16 06:25:38;;;;;;;39.40;23.30;;;;;;;6.89;100.00;100759.86;214066;1285;139237;-87
2024/02/16 06:30:38;;;;;;;45.00;25.20;;;;;;;6.85;100.00;100762.33;214111;1285;140708;-86
2024/02/16 06:35:38;;;;;;;43.90;25.10;;;;;;;6.82;100.00;100766.06;214236;1285;139715;-87
2024/02/16 06:40:39;;;;;;;41.90;24.10;;;;;;;6.80;100.00;100770.62;213657;1289;140410;-87
2024/02/16 06:45:39;;;;;;;47.30;24.00;;;;;;;6.79;100.00;100770.98;213970;1290;139184;-87
2024/02/16 06:50:40;;;;;;;47.80;26.00;;;;;;;6.81;100.00;100771.95;214544;1287;141370;-86
2024/02/16 06:55:40;;;;;;;44.20;25.00;;;;;;;6.84;100.00;100769.33;214716;1285;138868;-87
2024/02/16 07:00:42;;;;;;;47.90;27.30;;;;;;;6.89;100.00;100768.85;213685;1286;141476;-88
2024/02/16 07:05:42;;;;;;;51.00;26.50;;;;;;;6.91;100.00;100769.80;213895;1287;139180;-88
2024/02/16 07:10:42;;;;;;;50.40;28.20;;;;;;;6.94;100.00;100770.13;213350;1287;140973;-88
2024/02/16 07:15:43;;;;;;;49.50;26.90;;;;;;;6.99;100.00;100766.66;214076;1287;139254;-87
2024/02/16 07:20:43;;;;;;;48.80;28.00;;;;;;;7.06;100.00;100757.73;213948;1285;140079;-88
2024/02/16 07:25:44;;;;;;;46.80;26.50;;;;;;;7.10;100.00;100750.36;214062;1287;138910;-87
2024/02/16 07:30:44;;;;;;;53.80;26.30;;;;;;;7.18;100.00;100749.05;214174;1285;140306;-88
2024/02/16 07:35:45;;;;;;;46.00;26.60;;;;;;;7.26;100.00;100750.44;214894;1284;138810;-88
2024/02/16 07:40:45;;;;;;;39.60;23.30;;;;;;;7.34;100.00;100751.91;214213;1288;140248;-87
2024/02/16 07:45:46;;;;;;;42.20;25.50;;;;;;;7.41;100.00;100746.19;214482;1288;139676;-87
2024/02/16 07:50:47;;;;;;;45.20;26.30;;;;;;;7.50;100.00;100741.83;213754;1288;139913;-88
2024/02/16 07:55:48;;;;;;;42.30;24.60;;;;;;;7.57;100.00;100740.93;215832;1286;139452;-90
2024/02/16 08:00:49;;;;;;;43.80;24.80;;;;;;;7.67;100.00;100739.34;213410;1287;140367;-88
2024/02/16 08:05:49;;;;;;;44.70;25.60;;;;;;;7.78;100.00;100737.06;214102;1285;138780;-87
2024/02/16 08:10:50;;;;;;;45.10;26.20;;;;;;;7.90;100.00;100733.69;213776;1285;140218;-88
2024/02/16 08:15:51;;;;;;;40.80;24.80;;;;;;;8.03;100.00;100732.23;214283;1286;138961;-90
2024/02/16 08:20:52;;;;;;;45.30;23.60;;;;;;;8.16;100.00;100725.77;213846;1290;139968;-90
2024/02/16 08:25:52;;;;;;;43.70;22.70;;;;;;;8.30;100.00;100719.63;214243;1285;196930;-91
2024/02/16 08:30:53;;;;;;;39.70;23.40;;;;;;;8.46;100.00;100719.66;213831;1288;140410;-90
2024/02/16 08:35:53;;;;;;;44.50;23.10;;;;;;;8.68;100.00;100727.54;214310;1286;138848;-90
2024/02/16 08:40:53;;;;;;;34.30;21.00;;;;;;;8.92;100.00;100722.61;214000;1285;140385;-91
2024/02/16 08:45:54;;;;;;;35.00;21.10;;;;;;;9.18;100.00;100719.89;214300;1287;138825;-91
2024/02/16 08:50:54;;;;;;;37.40;20.40;;;;;;;9.47;100.00;100725.04;213616;1285;140122;-91
2024/02/16 08:55:55;;;;;;;35.90;20.30;;;;;;;9.77;100.00;100723.73;214525;1286;139463;-91
2024/02/16 09:00:55;;;;;;;34.40;20.20;;;;;;;10.03;100.00;100723.36;213680;1286;140360;-91
2024/02/16 09:05:55;;;;;;;30.00;18.20;;;;;;;10.34;100.00;100719.92;214474;1285;138947;-91
2024/02/16 09:10:56;;;;;;;27.00;15.70;;;;;;;10.69;100.00;100720.95;213790;1289;140452;-90
2024/02/16 09:15:56;;;;;;;27.40;16.40;;;;;;;11.07;100.00;100723.48;214153;1287;139352;-91
2024/02/16 09:20:57;;;;;;;28.50;16.20;;;;;;;11.57;100.00;100719.78;213675;1286;140423;-91
2024/02/16 09:25:59;;;;;;;24.50;15.20;;;;;;;11.95;100.00;100715.19;214017;1287;139335;-90
2024/02/16 09:30:59;;;;;;;24.50;14.90;;;;;;;12.35;100.00;100715.55;213525;1287;140988;-90
2024/02/16 09:35:59;;;;;;;24.80;14.00;;;;;;;12.74;100.00;100722.26;214007;1288;140225;-91
2024/02/16 09:41:01;;;;;;;23.20;14.40;;;;;;;13.18;100.00;100724.36;213359;1286;141061;-91
2024/02/16 09:46:01;;;;;;;28.20;14.50;;;;;;;13.46;100.00;100722.13;214043;1287;139367;-91
2024/02/16 09:51:01;;;;;;;26.70;14.50;;;;;;;13.70;100.00;100720.31;213634;1287;140783;-90
2024/02/16 09:56:05;;;;;;;20.40;13.30;;;;;;;13.87;100.00;100711.59;215060;1287;139533;-91
2024/02/16 10:01:05;;;;;;;21.10;13.60;;;;;;;14.01;100.00;100709.80;214224;1290;141228;-87
2024/02/16 10:06:14;;;;;;;22.20;13.80;;;;;;;14.03;100.00;100708.38;215224;1289;97855;-90
2024/02/16 10:11:16;;;;;;;23.90;13.90;;;;;;;14.17;100.00;100707.14;214233;1286;140272;-91
2024/02/16 10:16:16;;;;;;;24.00;14.00;;;;;;;14.25;100.00;100701.07;214418;1285;139469;-90
2024/02/16 10:21:27;;;;;;;21.10;12.30;;;;;;;14.20;100.00;100698.14;214036;1285;140594;-90
2024/02/16 10:26:28;;;;;;;24.50;14.00;;;;;;;14.21;100.00;100681.61;214470;1285;139459;-90
2024/02/16 10:31:31;;;;;;;29.30;14.20;;;;;;;14.22;100.00;100674.97;213534;1285;140343;-91
2024/02/16 10:36:33;;;;;;;23.80;12.40;;;;;;;14.30;100.00;100675.05;214695;1285;97999;-91
2024/02/16 10:41:40;;;;;;;20.40;12.40;;;;;;;14.20;100.00;100672.98;214812;1291;141370;-91
2024/02/16 10:46:41;;;;;;;21.10;12.20;;;;;;;14.07;100.00;100670.81;214849;1287;139725;-90
2024/02/16 10:51:47;;;;;;;21.10;11.60;;;;;;;14.04;100.00;100658.40;214166;1287;140804;-88
2024/02/16 10:56:47;;;;;;;22.30;12.90;;;;;;;14.02;100.00;100653.73;215937;1285;139743;-90
2024/02/16 11:02:00;;;;;;;25.20;12.40;;;;;;;13.96;100.00;100649.95;213683;1285;141375;-92
2024/02/16 11:07:01;;;;;;;21.90;12.80;;;;;;;13.95;100.00;100653.25;214372;1285;105452;-90
2024/02/16 11:12:03;;;;;;;19.10;11.00;;;;;;;13.96;100.00;100657.61;213524;1286;140656;-89
2024/02/16 11:17:09;;;;;;;20.10;11.20;;;;;;;13.86;100.00;100656.88;213913;1286;139713;-91
2024/02/16 11:22:11;;;;;;;22.10;11.80;;;;;;;13.74;100.00;100654.57;213540;1287;141412;-91
2024/02/16 11:27:15;;;;;;;19.90;11.50;;;;;;;13.70;100.00;100644.92;214110;1285;139515;-91
2024/02/16 11:32:15;;;;;;;21.80;12.20;;;;;;;13.68;100.00;100628.31;213633;1290;140711;-91
2024/02/16 11:37:16;;;;;;;20.70;11.30;;;;;;;13.70;100.00;100622.24;213823;1286;139173;-90
2024/02/16 11:42:19;;;;;;;20.10;11.40;;;;;;;13.66;100.00;100614.10;213311;1286;140391;-89
2024/02/16 11:47:25;;;;;;;21.20;11.30;;;;;;;13.67;100.00;100613.53;213870;1290;139026;-89
2024/02/16 11:52:25;;;;;;;19.40;11.20;;;;;;;13.75;100.00;100613.39;213665;1286;141037;-89
2024/02/16 11:57:27;;;;;;;25.20;12.30;;;;;;;13.82;100.00;100611.11;216648;1285;139389;-89
2024/02/16 12:02:28;;;;;;;18.30;10.20;;;;;;;13.87;100.00;100606.37;213907;1288;140533;-88
2024/02/16 12:07:28;;;;;;;23.70;11.80;;;;;;;13.90;100.00;100604.07;214302;1285;139308;-90
2024/02/16 12:12:31;;;;;;;19.90;10.80;;;;;;;13.92;100.00;100602.65;213767;1289;140541;-89
2024/02/16 12:17:31;;;;;;;23.10;13.30;;;;;;;13.90;100.00;100597.67;214253;1285;139103;-89
2024/02/16 12:22:31;;;;;;;18.10;10.30;;;;;;;13.94;100.00;100588.50;213394;1287;140634;-89
2024/02/16 12:27:33;;;;;;;16.60;9.90;;;;;;;13.97;100.00;100576.73;213828;1285;139413;-89
2024/02/16 12:32:34;;;;;;;17.40;10.40;;;;;;;13.98;100.00;100572.45;213755;1287;140667;-89
2024/02/16 12:37:35;;;;;;;18.20;10.40;;;;;;;13.97;100.00;100575.54;213856;1287;139403;-91
2024/02/16 12:42:35;;;;;;;17.60;11.60;;;;;;;13.95;99.51;100565.66;213504;1290;140764;-90
2024/02/16 12:47:35;;;;;;;18.70;10.20;;;;;;;13.96;99.85;100570.95;213873;1287;138853;-90
2024/02/16 12:52:38;;;;;;;18.30;10.60;;;;;;;13.95;100.00;100565.89;213388;1289;140500;-89
2024/02/16 12:57:38;;;;;;;18.40;10.70;;;;;;;13.94;100.00;100563.99;214590;1287;139375;-88
2024/02/16 13:02:39;;;;;;;20.70;10.10;;;;;;;13.94;99.95;100564.17;214196;1287;141140;-89
2024/02/16 13:07:41;;;;;;;17.20;10.20;;;;;;;13.95;100.00;100565.44;213888;1290;139768;-89
2024/02/16 13:12:42;;;;;;;20.40;10.50;;;;;;;14.01;100.00;100563.45;213493;1290;141341;-88
2024/02/16 13:17:43;;;;;;;16.50;9.60;;;;;;;14.12;100.00;100544.30;214177;1285;140371;-89
2024/02/16 13:22:43;;;;;;;21.40;11.30;;;;;;;14.14;99.21;100542.31;213476;1290;140340;-89
2024/02/16 13:27:44;;;;;;;17.80;10.40;;;;;;;14.15;99.70;100544.13;214054;1286;139611;-89
2024/02/16 13:32:44;;;;;;;17.70;10.30;;;;;;;14.12;99.63;100541.29;213750;1286;140565;-89
2024/02/16 13:37:44;;;;;;;18.70;10.30;;;;;;;14.10;99.83;100537.18;214162;1286;139938;-89
2024/02/16 13:42:45;;;;;;;20.10;10.90;;;;;;;14.09;99.58;100534.57;213482;1289;140320;-88
2024/02/16 13:47:45;;;;;;;18.20;11.10;;;;;;;14.04;99.94;100535.77;214139;1285;140398;-88
2024/02/16 13:52:46;;;;;;;19.00;11.20;;;;;;;13.99;99.88;100541.77;213458;1286;140865;-88
2024/02/16 13:57:47;;;;;;;19.20;9.90;;;;;;;13.94;100.00;100545.09;214043;1290;139181;-87
2024/02/16 14:02:47;;;;;;;20.50;11.90;;;;;;;13.91;100.00;100538.55;215644;1288;139918;-89
2024/02/16 14:07:48;;;;;;;20.50;11.20;;;;;;;13.89;100.00;100541.71;213991;1290;139346;-88
2024/02/16 14:12:48;;;;;;;19.90;11.10;;;;;;;13.87;100.00;100541.70;213571;1290;141425;-88
2024/02/16 14:17:49;;;;;;;17.60;10.30;;;;;;;13.85;100.00;100540.27;214131;1285;140008;-88
2024/02/16 14:22:50;;;;;;;21.80;10.50;;;;;;;13.88;100.00;100538.55;213659;1291;140927;-88
2024/02/16 14:27:50;;;;;;;16.50;10.50;;;;;;;13.88;100.00;100537.92;214243;1286;139849;-88
2024/02/16 14:32:51;;;;;;;17.90;11.10;;;;;;;13.87;100.00;100535.23;213660;1289;141027;-86
2024/02/16 14:37:51;;;;;;;22.30;12.00;;;;;;;13.86;100.00;100531.27;214117;1289;139195;-87
2024/02/16 14:42:51;;;;;;;17.00;10.50;;;;;;;13.83;100.00;100522.66;213531;1289;140491;-89
2024/02/16 14:47:52;;;;;;;20.00;10.80;;;;;;;13.77;99.68;100519.11;214158;1285;139072;-89
2024/02/16 14:52:52;;;;;;;16.70;10.20;;;;;;;13.70;100.00;100514.84;213521;1287;140417;-87
2024/02/16 14:57:54;;;;;;;18.70;10.50;;;;;;;13.68;100.00;100511.29;213792;1290;139801;-88
2024/02/16 15:02:54;;;;;;;18.00;10.30;;;;;;;13.66;100.00;100519.90;215147;1288;139499;-88
2024/02/16 15:07:55;;;;;;;21.00;11.20;;;;;;;13.65;100.00;100519.19;213763;1288;139173;-87
2024/02/16 15:12:55;;;;;;;19.70;10.20;;;;;;;13.60;100.00;100517.61;213531;1290;141080;-87
2024/02/16 15:17:56;;;;;;;21.20;10.50;;;;;;;13.57;100.00;100513.27;213866;1290;138899;-89
2024/02/16 15:22:56;;;;;;;19.30;11.10;;;;;;;13.55;100.00;100514.20;213412;1290;141285;-89
2024/02/16 15:27:58;;;;;;;18.70;10.50;;;;;;;13.50;100.00;100519.58;213901;1289;139474;-88
2024/02/16 15:32:59;;;;;;;18.80;10.60;;;;;;;13.47;100.00;100512.39;213361;1290;140462;-87
2024/02/16 15:37:59;;;;;;;22.10;11.40;;;;;;;13.42;100.00;100517.60;213818;1287;141378;-86
2024/02/16 15:43:03;;;;;;;20.30;10.60;;;;;;;13.41;100.00;100521.23;213407;1290;140795;-87
2024/02/16 15:48:03;;;;;;;21.70;11.50;;;;;;;13.38;100.00;100524.70;213934;1289;97969;-87
2024/02/16 15:53:04;;;;;;;20.80;11.00;;;;;;;13.35;100.00;100523.43;213225;1291;139760;-87
2024/02/16 15:58:04;;;;;;;31.90;12.80;;;;;;;13.30;100.00;100517.83;213964;1286;139236;-87
2024/02/16 16:03:05;;;;;;;18.50;10.40;;;;;;;13.28;100.00;100512.52;214598;1286;140259;-87
2024/02/16 16:08:05;;;;;;;18.10;10.70;;;;;;;13.24;100.00;100510.85;213769;1296;139197;-86
2024/02/16 16:13:08;;;;;;;20.10;11.40;;;;;;;13.17;100.00;100515.42;213618;1289;140543;-87
2024/02/16 16:18:08;;;;;;;22.70;11.00;;;;;;;13.13;100.00;100521.66;214201;1288;98101;-87
2024/02/16 16:23:08;;;;;;;20.70;12.20;;;;;;;13.08;100.00;100517.30;213683;1286;140425;-86
2024/02/16 16:28:09;;;;;;;24.50;12.80;;;;;;;13.04;100.00;100521.80;214061;1289;139248;-87
2024/02/16 16:33:09;;;;;;;23.40;12.80;;;;;;;13.00;100.00;100518.70;213435;1289;140309;-86
2024/02/16 16:38:09;;;;;;;21.50;11.70;;;;;;;12.96;100.00;100513.48;213891;1292;139275;-87
2024/02/16 16:43:10;;;;;;;20.70;11.80;;;;;;;12.91;100.00;100519.99;213527;1289;140252;-88
2024/02/16 16:48:10;;;;;;;21.50;12.70;;;;;;;12.86;100.00;100515.80;214297;1287;97966;-88
2024/02/16 16:53:11;;;;;;;23.80;13.00;;;;;;;12.81;100.00;100514.27;213516;1285;140534;-88
2024/02/16 16:58:11;;;;;;;31.90;14.60;;;;;;;12.75;100.00;100517.34;214058;1288;139241;-88
2024/02/16 17:03:14;;;;;;;28.90;14.30;;;;;;;12.72;100.00;100525.59;215823;1288;140768;-88
2024/02/16 17:08:14;;;;;;;27.40;14.60;;;;;;;12.69;100.00;100524.57;214228;1286;139329;-89
2024/02/16 17:13:15;;;;;;;22.30;12.70;;;;;;;12.67;100.00;100522.75;213430;1286;140961;-88
2024/02/16 17:18:15;;;;;;;22.10;11.80;;;;;;;12.64;100.00;100523.13;213986;1287;117758;-88
2024/02/16 17:23:16;;;;;;;21.00;12.50;;;;;;;12.61;100.00;100520.83;213825;1285;140455;-87
2024/02/16 17:28:16;;;;;;;20.50;11.30;;;;;;;12.58;100.00;100520.97;214230;1289;139390;-88
2024/02/16 17:33:16;;;;;;;20.20;11.60;;;;;;;12.56;100.00;100519.15;213519;1292;140970;-87
2024/02/16 17:38:17;;;;;;;21.90;11.80;;;;;;;12.55;100.00;100524.34;213719;1287;139612;-89
2024/02/16 17:43:17;;;;;;;23.00;13.00;;;;;;;12.54;100.00;100522.61;213268;1287;140334;-88
2024/02/16 17:48:18;;;;;;;20.90;11.60;;;;;;;12.52;100.00;100526.77;213993;1286;98096;-88
2024/02/16 17:53:18;;;;;;;24.90;13.40;;;;;;;12.50;100.00;100532.21;213495;1290;141281;-88
2024/02/16 17:58:18;;;;;;;24.00;13.30;;;;;;;12.49;100.00;100534.02;213796;1286;139202;-89
2024/02/16 18:03:19;;;;;;;30.00;14.50;;;;;;;12.47;100.00;100539.61;215430;1290;140499;-89
2024/02/16 18:08:19;;;;;;;29.70;15.60;;;;;;;12.46;100.00;100542.52;214414;1285;140195;-88
2024/02/16 18:13:21;;;;;;;24.90;14.70;;;;;;;12.45;100.00;100543.07;213705;1289;139992;-88
2024/02/16 18:18:21;;;;;;;27.20;15.20;;;;;;;12.45;100.00;100543.15;214296;1284;98053;-88
2024/02/16 18:23:22;;;;;;;25.80;14.20;;;;;;;12.43;100.00;100541.25;213692;1285;140433;-88
2024/02/16 18:28:22;;;;;;;25.20;14.10;;;;;;;12.40;100.00;100538.00;213984;1285;139631;-89
2024/02/16 18:33:22;;;;;;;27.80;14.50;;;;;;;12.38;100.00;100536.33;213648;1289;141042;-89
2024/02/16 18:38:23;;;;;;;26.20;13.80;;;;;;;12.36;100.00;100538.21;214147;1289;139210;-88
2024/02/16 18:43:24;;;;;;;28.10;14.70;;;;;;;12.35;100.00;100544.43;213568;1288;140450;-90
2024/02/16 18:48:26;;;;;;;27.90;14.80;;;;;;;12.33;100.00;100557.66;214176;1289;97970;-88
2024/02/16 18:53:26;;;;;;;31.20;14.90;;;;;;;12.31;100.00;100571.14;213672;1285;140017;-88
2024/02/16 18:58:27;;;;;;;24.40;13.90;;;;;;;12.28;100.00;100578.77;214102;1285;139217;-89
2024/02/16 19:03:28;;;;;;;25.40;14.50;;;;;;;12.21;100.00;100578.09;215428;1284;140222;-89
2024/02/16 19:08:28;;;;;;;25.50;14.30;;;;;;;12.15;100.00;100582.16;214851;1285;139608;-90
2024/02/16 19:13:33;;;;;;;24.70;14.50;;;;;;;12.08;100.00;100573.52;213709;1289;140041;-90
2024/02/16 19:18:33;;;;;;;28.10;15.50;;;;;;;12.02;100.00;100573.30;214299;1288;99260;-89
2024/02/16 19:23:33;;;;;;;26.00;15.20;;;;;;;11.93;100.00;100575.13;213652;1285;140553;-90
2024/02/16 19:28:37;;;;;;;26.70;15.50;;;;;;;11.85;100.00;100570.27;214030;1290;139035;-90
2024/02/16 19:33:38;;;;;;;25.10;14.90;;;;;;;11.77;100.00;100567.11;213716;1289;140451;-90
2024/02/16 19:38:38;;;;;;;31.90;16.30;;;;;;;11.70;100.00;100566.51;214123;1290;139211;-89
2024/02/16 19:43:39;;;;;;;30.30;15.80;;;;;;;11.62;100.00;100564.23;213402;1290;140095;-90
2024/02/16 19:48:40;;;;;;;31.00;16.60;;;;;;;11.53;100.00;100572.54;213787;1287;99278;-89
2024/02/16 19:53:40;;;;;;;35.00;18.00;;;;;;;11.48;100.00;100572.17;213315;1290;140426;-89
2024/02/16 19:58:41;;;;;;;38.80;18.40;;;;;;;11.43;100.00;100569.45;213799;1287;140030;-90
2024/02/16 20:03:41;;;;;;;30.20;17.70;;;;;;;11.38;100.00;100571.70;214993;1285;141190;-88
2024/02/16 20:08:43;;;;;;;29.30;16.70;;;;;;;11.34;100.00;100573.70;215008;1285;139414;-90
2024/02/16 20:13:43;;;;;;;25.80;16.30;;;;;;;11.32;100.00;100576.44;213417;1285;140511;-90
2024/02/16 20:18:44;;;;;;;28.80;17.90;;;;;;;11.30;100.00;100574.13;214216;1289;107668;-91
2024/02/16 20:23:45;;;;;;;30.00;17.60;;;;;;;11.28;100.00;100575.75;213680;1289;140658;-90
2024/02/16 20:28:46;;;;;;;29.00;17.30;;;;;;;11.27;100.00;100576.61;214295;1285;261856;-91
2024/02/16 20:33:46;;;;;;;26.90;16.90;;;;;;;11.27;100.00;100579.20;213394;1284;141475;-90
2024/02/16 20:38:47;;;;;;;33.20;18.30;;;;;;;11.25;100.00;100582.58;213926;1285;140910;-89
2024/02/16 20:43:48;;;;;;;31.90;20.20;;;;;;;11.23;100.00;100581.67;213798;1286;140344;-90
2024/02/16 20:48:48;;;;;;;36.40;21.00;;;;;;;11.21;100.00;100586.86;214349;1285;97967;-90
2024/02/16 20:53:48;;;;;;;36.50;19.90;;;;;;;11.19;100.00;100590.22;213649;1286;140724;-90
2024/02/16 20:58:49;;;;;;;36.90;21.60;;;;;;;11.16;100.00;100595.61;214817;1286;139249;-91
2024/02/16 21:03:50;;;;;;;36.30;21.60;;;;;;;11.13;100.00;100594.48;215637;1285;141039;-90
2024/02/16 21:08:50;;;;;;;33.60;20.70;;;;;;;11.13;100.00;100600.69;215962;1285;139243;-91
2024/02/16 21:13:50;;;;;;;36.20;20.70;;;;;;;11.12;100.00;100597.69;214169;1286;140439;-91
2024/02/16 21:18:51;;;;;;;36.80;21.90;;;;;;;11.11;100.00;100596.13;214166;1287;98072;-91
2024/02/16 21:23:52;;;;;;;36.50;21.60;;;;;;;11.10;100.00;100593.58;213094;1286;141698;-91
2024/02/16 21:28:52;;;;;;;32.00;19.80;;;;;;;11.10;100.00;100593.98;213459;1287;139151;-92
2024/02/16 21:33:52;;;;;;;39.80;22.00;;;;;;;11.09;100.00;100596.09;213207;1285;140065;-92
2024/02/16 21:38:53;;;;;;;39.40;20.30;;;;;;;11.06;100.00;100593.61;213963;1286;139401;-91
2024/02/16 21:43:54;;;;;;;35.20;20.20;;;;;;;11.04;100.00;100600.83;213024;1286;140348;-91
2024/02/16 21:49:06;;;;;;;35.30;19.00;;;;;;;11.00;100.00;100600.86;213618;1290;98026;-91
2024/02/16 21:54:06;;;;;;;32.30;18.60;;;;;;;10.97;100.00;100598.78;213104;1288;139954;-92
2024/02/16 21:59:07;;;;;;;32.30;18.30;;;;;;;10.93;100.00;100599.36;213620;1285;141541;-91
2024/02/16 22:04:07;;;;;;;31.90;17.40;;;;;;;10.91;100.00;100603.66;214241;1286;141304;-91
2024/02/16 22:09:09;;;;;;;33.20;18.30;;;;;;;10.89;100.00;100604.17;214000;1287;139541;-89